Zim Luanda — 9HA2029 — position and weather

sailwx.info

Track history (hours):
 
Tides and Currents Weather Stations Pressure Air Temp Water Temp Dewpoint Dewpoint Depression Visibility Wind Speed Wind Dir Waves Ship Positions

Zim Luanda

Last reported at 2014-Aug-20 18:12 UTC. Time now 2014-Aug-21 08:15 UTC.
Position N 32°49' E 035°01'.

Length 260 m; draft 11.8 m.

Type: Ship (hazmat cat A). MMSI: 249830000.

Date/timePositionNaut miles runAvg speedWind from/ knotsBaromVisibWave heightAir tempDewpointWater temp
2014-Aug-20 18:12N 32°49' E 035°01'13 0.7
2014-Aug-19 23:25N 32°44' E 034°47'2412.7
2014-Aug-19 21:33N 32°21' E 034°39'1212.5
2014-Aug-19 20:33N 32°09' E 034°35'74 2.3
2014-Aug-18 12:32N 32°19' E 033°08'1514.7
2014-Aug-18 11:30N 32°25' E 032°51'1414.8
2014-Aug-18 10:32N 32°29' E 032°35'6314.7
2014-Aug-18 06:16N 32°51' E 031°25'2714.6
2014-Aug-18 04:27N 32°59' E 030°55'2814.7
2014-Aug-18 02:31N 33°09' E 030°23'1814.7
2014-Aug-18 01:19N 33°15' E 030°03'1114.9
2014-Aug-18 00:33N 33°18' E 029°50'12114.6
2014-Aug-17 16:19N 33°54' E 027°32'1115.0
2014-Aug-17 15:33N 33°58' E 027°19'1514.8
2014-Aug-17 14:32N 34°02' E 027°02'62414.9
2014-Aug-15 20:33N 36°28' E 014°39'1514.9
2014-Aug-15 19:33N 36°33' E 014°22'1515.1
2014-Aug-15 18:33N 36°41' E 014°05'1514.9
2014-Aug-15 17:33N 36°47' E 013°49'1514.9
2014-Aug-15 16:33N 36°54' E 013°32'1514.7
2014-Aug-15 15:33N 37°02' E 013°16'2214.9
2014-Aug-15 14:05N 37°12' E 012°52'815.6
2014-Aug-15 13:33N 37°16' E 012°43'19615.0
2014-Aug-15 00:28N 38°32' E 008°54'1414.6
2014-Aug-14 23:32N 38°36' E 008°37'1514.9
2014-Aug-14 22:33N 38°41' E 008°19'3714.9
2014-Aug-14 20:04N 38°53' E 007°34'18815.0
2014-Aug-14 07:33N 39°53' E 003°44'3214.9
2014-Aug-14 05:24N 40°09' E 003°09'1314.9
2014-Aug-14 04:33N 40°16' E 002°54'1515.0
2014-Aug-14 03:33N 40°24' E 002°38'1515.1
2014-Aug-14 02:33N 40°32' E 002°21'1514.9
2014-Aug-14 01:33N 40°40' E 002°04'1515.2
2014-Aug-14 00:33N 40°47' E 001°47'1515.2
2014-Aug-13 23:33N 40°55' E 001°30'37 1.7
2014-Aug-13 01:19N 40°21' E 001°09'1013.1
2014-Aug-13 00:33N 40°12' E 001°06'2913.0
2014-Aug-12 22:21N 39°44' E 000°55'3813.3
2014-Aug-12 19:28N 39°08' E 000°39'1212.9
2014-Aug-12 18:33N 38°57' E 000°34'6813.6
2014-Aug-12 13:33N 37°58' W 000°10'1514.7
2014-Aug-12 12:33N 37°46' W 000°20'1414.3
2014-Aug-12 11:33N 37°34' W 000°30'1414.1
2014-Aug-12 10:33N 37°25' W 000°43'1613.6
2014-Aug-12 09:21N 37°14' W 000°58'5212.9
2014-Aug-12 05:20N 36°39' W 001°47'1212.3
2014-Aug-12 04:22N 36°32' W 001°58'1012.7
2014-Aug-12 03:33N 36°25' W 002°08'1512.6
2014-Aug-12 02:23N 36°21' W 002°25'1212.9
2014-Aug-12 01:28N 36°20' W 002°40'13114.2
2014-Aug-11 16:16N 35°60' W 005°20'16914.3
2014-Aug-11 04:28N 36°04' W 008°49'1813.8
2014-Aug-11 03:11N 36°11' W 009°09'1013.9
2014-Aug-11 02:26N 36°15' W 009°21'1213.6
2014-Aug-11 01:34N 36°19' W 009°35'6113.7
2014-Aug-10 21:07N 36°40' W 010°46'  
Track history (hours):
 
Tides and Currents Weather Stations Pressure Air Temp Water Temp Dewpoint Dewpoint Depression Visibility Wind Speed Wind Dir Waves Ship Positions

Zim Luanda

Last reported at 2014-Aug-20 18:12 UTC. Time now 2014-Aug-21 08:15 UTC.
Position N 32°49' E 035°01'.

Length 260 m; draft 11.8 m.

Type: Ship (hazmat cat A). MMSI: 249830000.

Date/timePositionNaut miles runAvg speedWind from/ knotsBaromVisibWave heightAir tempDewpointWater temp
2014-Aug-20 18:12N 32°49' E 035°01'13 0.7
2014-Aug-19 23:25N 32°44' E 034°47'2412.7
2014-Aug-19 21:33N 32°21' E 034°39'1212.5
2014-Aug-19 20:33N 32°09' E 034°35'74 2.3
2014-Aug-18 12:32N 32°19' E 033°08'1514.7
2014-Aug-18 11:30N 32°25' E 032°51'1414.8
2014-Aug-18 10:32N 32°29' E 032°35'6314.7
2014-Aug-18 06:16N 32°51' E 031°25'2714.6
2014-Aug-18 04:27N 32°59' E 030°55'2814.7
2014-Aug-18 02:31N 33°09' E 030°23'1814.7
2014-Aug-18 01:19N 33°15' E 030°03'1114.9
2014-Aug-18 00:33N 33°18' E 029°50'12114.6
2014-Aug-17 16:19N 33°54' E 027°32'1115.0
2014-Aug-17 15:33N 33°58' E 027°19'1514.8
2014-Aug-17 14:32N 34°02' E 027°02'62414.9
2014-Aug-15 20:33N 36°28' E 014°39'1514.9
2014-Aug-15 19:33N 36°33' E 014°22'1515.1
2014-Aug-15 18:33N 36°41' E 014°05'1514.9
2014-Aug-15 17:33N 36°47' E 013°49'1514.9
2014-Aug-15 16:33N 36°54' E 013°32'1514.7
2014-Aug-15 15:33N 37°02' E 013°16'2214.9
2014-Aug-15 14:05N 37°12' E 012°52'815.6
2014-Aug-15 13:33N 37°16' E 012°43'19615.0
2014-Aug-15 00:28N 38°32' E 008°54'1414.6
2014-Aug-14 23:32N 38°36' E 008°37'1514.9
2014-Aug-14 22:33N 38°41' E 008°19'3714.9
2014-Aug-14 20:04N 38°53' E 007°34'18815.0
2014-Aug-14 07:33N 39°53' E 003°44'3214.9
2014-Aug-14 05:24N 40°09' E 003°09'1314.9
2014-Aug-14 04:33N 40°16' E 002°54'1515.0
2014-Aug-14 03:33N 40°24' E 002°38'1515.1
2014-Aug-14 02:33N 40°32' E 002°21'1514.9
2014-Aug-14 01:33N 40°40' E 002°04'1515.2
2014-Aug-14 00:33N 40°47' E 001°47'1515.2
2014-Aug-13 23:33N 40°55' E 001°30'37 1.7
2014-Aug-13 01:19N 40°21' E 001°09'1013.1
2014-Aug-13 00:33N 40°12' E 001°06'2913.0
2014-Aug-12 22:21N 39°44' E 000°55'3813.3
2014-Aug-12 19:28N 39°08' E 000°39'1212.9
2014-Aug-12 18:33N 38°57' E 000°34'6813.6
2014-Aug-12 13:33N 37°58' W 000°10'1514.7
2014-Aug-12 12:33N 37°46' W 000°20'1414.3
2014-Aug-12 11:33N 37°34' W 000°30'1414.1
2014-Aug-12 10:33N 37°25' W 000°43'1613.6
2014-Aug-12 09:21N 37°14' W 000°58'5212.9
2014-Aug-12 05:20N 36°39' W 001°47'1212.3
2014-Aug-12 04:22N 36°32' W 001°58'1012.7
2014-Aug-12 03:33N 36°25' W 002°08'1512.6
2014-Aug-12 02:23N 36°21' W 002°25'1212.9
2014-Aug-12 01:28N 36°20' W 002°40'13114.2
2014-Aug-11 16:16N 35°60' W 005°20'16914.3
2014-Aug-11 04:28N 36°04' W 008°49'1813.8
2014-Aug-11 03:11N 36°11' W 009°09'1013.9
2014-Aug-11 02:26N 36°15' W 009°21'1213.6
2014-Aug-11 01:34N 36°19' W 009°35'6113.7
2014-Aug-10 21:07N 36°40' W 010°46'  

Dump ship's entire track history